Главная страница
METAR-TAF:

METAR-TAF

Аэропорты :

Минеральные Воды, Россия

широта: 44-14N, долгота: 043-04E, высота над уровнем моря: 314 м

Текущие метеонаблюдения

Эта сводка был подготовлена 37 минут назад, в 16:30 UTC
Ветер 4 Узел от южный
Температура 25°C
Влажность 34%
Давление 1014 hPa
Видимость 10 км и более

METAR: URMM 191630Z 17002MPS 9999 NSC 25/08 Q1014 R30/090070 NOSIG RMK QFE732/0977

Время: 20:07 (17:07 UTC)

Прогноз

Эта сводка был подготовлена 3 часа и 9 минут назад, в 13:58 UTC
Прогноз действительный с 19-го 15 UTC до 20-го 15 UTC
Ветер 6 Узел от западно-северо-западный с порывами до 16 Узел
Видимость 10 км и более
временами
С 19-го 21 UTC до 20-го 06 UTC
Видимость: 3100 м
Рассеянная облачность на высоте 1100 фута
дымка
изменения
С 20-го 06 UTC до 20-го 08 UTC
Ветер 6 Узел от восточный с порывами до 16 Узел

TAF: URMM 191358Z 1915/2015 29003G08MPS 9999 NSC TX32/2012Z TN14/2003Z TEMPO 1921/2006 3100 BR BKN011 BECMG 2006/2008 09003G08MPS

Метеонаблюдения и прогнозы для более 4000 аэропортов (сводки METAR и TAF).

Имеющиеся станции представлены на карте желтыми и красными точками.

Чтобы увидеть название станции, наведите на нее мышь.

Затем щелкните, чтобы увидеть метеонаблюдения и метеопрогнозы.

Управление картой: чтобы увеличить масштаб, щелкните зеленые кнопки с черным крестиком; чтобы уменьшить масштаб, щелкните зеленую кнопку с тире; для просмотра соседних карт щелкайте зеленые стрелки.


METAR-TAF: